Time;durP1;ratioP1;P1;durP2;ratioP2;P2;SDS_P1;SDS_P2;PMS_P1;PMS_P2;Temp;Humidity;BMP_temperature;BMP_pressure;BME280_temperature;BME280_humidity;BME280_pressure;Samples;Min_cycle;Max_cycle;Signal;HPM_P1;HPM_P2
2021/12/11 00:00:37;;;;;;;52.10;25.02;;;0.90;99.90;;;;;;5016832;28;20088;-60
2021/12/11 00:03:08;;;;;;;45.65;23.38;;;0.90;99.90;;;;;;5026622;28;20029;-61
2021/12/11 00:05:34;;;;;;;;;;;0.90;99.90;;;;;;5019087;28;20092;-61
2021/12/11 00:08:01;;;;;;;45.83;23.00;;;0.90;99.90;;;;;;5015471;28;20380;-61
2021/12/11 00:10:37;;;;;;;43.88;24.17;;;0.90;99.90;;;;;;5019237;28;20095;-61
2021/12/11 00:13:08;;;;;;;51.97;25.42;;;0.90;99.90;;;;;;5014137;28;20046;-61
2021/12/11 00:15:38;;;;;;;54.97;26.30;;;0.90;99.90;;;;;;5020327;28;20564;-61
2021/12/11 00:18:08;;;;;;;58.72;26.70;;;0.90;99.90;;;;;;5019001;28;20438;-61
2021/12/11 00:20:38;;;;;;;54.03;26.07;;;0.90;99.90;;;;;;5018770;28;20401;-61
2021/12/11 00:23:05;;;;;;;54.03;26.58;;;0.90;99.90;;;;;;5013665;28;20555;-61
2021/12/11 00:25:31;;;;;;;51.60;26.90;;;0.90;99.90;;;;;;5014413;28;20504;-61
2021/12/11 00:28:05;;;;;;;54.10;26.30;;;0.90;99.90;;;;;;5015681;28;20034;-61
2021/12/11 00:30:35;;;;;;;56.85;27.98;;;0.90;99.90;;;;;;5015968;28;20017;-61
2021/12/11 00:33:12;;;;;;;54.30;27.02;;;0.90;99.90;;;;;;5016520;28;20481;-61
2021/12/11 00:35:39;;;;;;;59.05;27.30;;;0.90;99.90;;;;;;5017069;28;20017;-61
2021/12/11 00:38:22;;;;;;;53.88;25.92;;;0.90;99.90;;;;;;5014775;28;20096;-61
2021/12/11 00:40:51;;;;;;;50.20;25.63;;;1.00;99.90;;;;;;5015722;28;20093;-61
2021/12/11 00:43:20;;;;;;;48.30;25.40;;;1.00;99.90;;;;;;5016883;28;20022;-61
2021/12/11 00:45:49;;;;;;;50.38;26.23;;;1.00;99.90;;;;;;5018097;28;20114;-61
2021/12/11 00:48:19;;;;;;;52.50;26.85;;;1.00;99.90;;;;;;5017221;28;20105;-61
2021/12/11 00:50:49;;;;;;;51.85;27.08;;;1.00;99.90;;;;;;5016043;28;20048;-60
2021/12/11 00:53:24;;;;;;;53.65;28.00;;;1.00;99.90;;;;;;5013101;28;20045;-61
2021/12/11 00:55:53;;;;;;;52.03;26.35;;;1.10;99.90;;;;;;5014930;28;20033;-61
2021/12/11 00:58:24;;;;;;;48.95;26.35;;;1.10;99.90;;;;;;5016460;28;20087;-61
2021/12/11 01:01:00;;;;;;;45.70;24.35;;;1.10;99.90;;;;;;5018223;28;20424;-61
2021/12/11 01:03:30;;;;;;;42.58;24.42;;;1.10;99.90;;;;;;5018191;28;20081;-60
2021/12/11 01:05:58;;;;;;;47.78;25.20;;;1.10;99.90;;;;;;5019724;28;20009;-62
2021/12/11 01:08:26;;;;;;;49.03;26.33;;;1.10;99.90;;;;;;5017972;28;20022;-61
2021/12/11 01:10:59;;;;;;;53.03;27.60;;;1.10;99.90;;;;;;5017709;28;20382;-62
2021/12/11 01:13:30;;;;;;;52.45;26.25;;;1.10;99.90;;;;;;5015354;28;20068;-61
2021/12/11 01:16:04;;;;;;;48.92;27.13;;;1.10;99.90;;;;;;5016833;28;20037;-61
2021/12/11 01:18:39;;;;;;;58.28;27.63;;;1.10;99.90;;;;;;5017199;28;20053;-61
2021/12/11 01:21:28;;;;;;;54.33;26.27;;;1.10;99.90;;;;;;5013933;28;20060;-61
2021/12/11 01:26:31;;;;;;;46.67;24.65;;;1.10;99.90;;;;;;5018915;28;20022;-61
2021/12/11 01:28:57;;;;;;;50.78;24.67;;;1.10;99.90;;;;;;5015454;28;20044;-61
2021/12/11 01:31:24;;;;;;;55.13;27.08;;;1.10;99.90;;;;;;5010827;28;20038;-61
2021/12/11 01:33:54;;;;;;;50.92;27.17;;;1.10;99.90;;;;;;5012248;28;20115;-62
2021/12/11 01:36:19;;;;;;;53.08;27.48;;;1.10;99.90;;;;;;5011693;28;20477;-61
2021/12/11 01:38:46;;;;;;;47.20;26.27;;;1.10;99.90;;;;;;5017513;28;20034;-61
2021/12/11 01:41:16;;;;;;;41.90;24.35;;;1.10;99.90;;;;;;5013434;28;20117;-61
2021/12/11 01:43:43;;;;;;;50.85;27.77;;;1.10;99.90;;;;;;5016594;28;20043;-61
2021/12/11 01:46:10;;;;;;;50.75;26.63;;;1.20;99.90;;;;;;5017126;28;20037;-61
2021/12/11 01:48:41;;;;;;;48.85;25.08;;;1.20;99.90;;;;;;5017916;28;20030;-61
2021/12/11 01:51:25;;;;;;;47.35;24.98;;;1.20;99.90;;;;;;5015601;28;20532;-61
2021/12/11 01:54:07;;;;;;;46.15;25.23;;;1.20;99.90;;;;;;5014392;28;20110;-62
2021/12/11 01:56:33;;;;;;;;;;;1.20;99.90;;;;;;5021366;28;20025;-61
2021/12/11 01:59:07;;;;;;;45.97;25.38;;;1.20;99.90;;;;;;5017926;28;19956;-61
2021/12/11 02:02:12;;;;;;;48.67;28.00;;;1.20;99.90;;;;;;5013599;28;20088;-61
2021/12/11 02:04:48;;;;;;;51.03;26.80;;;1.20;99.90;;;;;;5012086;28;20030;-61
2021/12/11 02:07:19;;;;;;;44.40;24.48;;;1.20;99.90;;;;;;5019196;28;20718;-61
2021/12/11 02:09:51;;;;;;;41.58;24.88;;;1.20;99.90;;;;;;5015297;28;20034;-61
2021/12/11 02:12:22;;;;;;;43.10;25.27;;;1.20;99.90;;;;;;5014565;28;20405;-61
2021/12/11 02:14:51;;;;;;;49.47;25.73;;;1.20;99.90;;;;;;5013939;28;20082;-61
2021/12/11 02:17:29;;;;;;;45.25;25.08;;;1.20;99.90;;;;;;5022668;28;20276;-61
2021/12/11 02:19:58;;;;;;;48.83;26.77;;;1.20;99.90;;;;;;5016032;28;20030;-61
2021/12/11 02:22:31;;;;;;;48.08;26.17;;;1.20;99.90;;;;;;5015417;28;20034;-61
2021/12/11 02:25:07;;;;;;;42.97;24.33;;;1.20;99.90;;;;;;5023556;28;20037;-61
2021/12/11 02:27:40;;;;;;;42.25;25.15;;;1.20;99.90;;;;;;5014990;28;20033;-61
2021/12/11 02:30:22;;;;;;;47.03;25.40;;;1.20;99.90;;;;;;5016250;28;20374;-61
2021/12/11 02:32:53;;;;;;;46.78;25.95;;;1.20;99.90;;;;;;5008745;28;20034;-61
2021/12/11 02:35:44;;;;;;;44.88;25.05;;;1.20;99.90;;;;;;5016890;28;20029;-62
2021/12/11 02:38:26;;;;;;;49.88;25.95;;;1.20;99.90;;;;;;5008534;28;20061;-61
2021/12/11 02:40:58;;;;;;;45.55;24.73;;;1.20;99.90;;;;;;5017906;28;20025;-61
2021/12/11 02:43:37;;;;;;;47.88;24.92;;;1.20;99.90;;;;;;5017739;28;20026;-61
2021/12/11 02:46:29;;;;;;;48.38;23.98;;;1.20;99.90;;;;;;5022892;28;20029;-61
2021/12/11 02:49:06;;;;;;;51.72;24.50;;;1.30;99.90;;;;;;5018652;28;20018;-61
2021/12/11 02:51:47;;;;;;;44.63;25.20;;;1.30;99.90;;;;;;5016377;28;20956;-60
2021/12/11 02:54:20;;;;;;;47.43;25.80;;;1.30;99.90;;;;;;5014158;28;20109;-61
2021/12/11 02:56:51;;;;;;;44.17;24.90;;;1.30;99.90;;;;;;5017798;28;20252;-61
2021/12/11 02:59:22;;;;;;;47.22;25.42;;;1.30;99.90;;;;;;5017939;28;20030;-61
2021/12/11 03:01:50;;;;;;;45.15;25.33;;;1.30;99.90;;;;;;5018375;28;20080;-61
2021/12/11 03:04:27;;;;;;;44.33;24.60;;;1.30;99.90;;;;;;5017153;28;20033;-60
2021/12/11 03:06:54;;;;;;;49.58;25.20;;;1.30;99.90;;;;;;5015848;28;20042;-61
2021/12/11 03:09:24;;;;;;;48.20;25.52;;;1.30;99.90;;;;;;5012955;28;20030;-61
2021/12/11 03:11:54;;;;;;;48.00;25.13;;;1.30;99.90;;;;;;5018192;28;20029;-62
2021/12/11 03:14:21;;;;;;;48.38;25.38;;;1.30;99.90;;;;;;5017187;28;20386;-61
2021/12/11 03:16:49;;;;;;;50.88;26.33;;;1.30;99.90;;;;;;5017299;28;20032;-61
2021/12/11 03:19:18;;;;;;;49.20;26.70;;;1.30;99.90;;;;;;5014292;28;20034;-61
2021/12/11 03:21:45;;;;;;;53.67;26.23;;;1.30;99.90;;;;;;5012790;28;20053;-61
2021/12/11 03:24:11;;;;;;;52.47;27.60;;;1.20;99.90;;;;;;5017803;28;20033;-61
2021/12/11 03:26:40;;;;;;;50.38;25.40;;;1.30;99.90;;;;;;5020695;28;20088;-62
2021/12/11 03:29:07;;;;;;;45.55;24.58;;;1.30;99.90;;;;;;5016927;28;20553;-61
2021/12/11 03:31:36;;;;;;;45.92;24.35;;;1.30;99.90;;;;;;5014463;28;20061;-61
2021/12/11 03:34:06;;;;;;;44.28;24.15;;;1.30;99.90;;;;;;5016567;28;20037;-61
2021/12/11 03:36:33;;;;;;;59.15;26.77;;;1.30;99.90;;;;;;5017179;28;20497;-61
2021/12/11 03:39:06;;;;;;;52.35;26.92;;;1.30;99.90;;;;;;5018993;28;21497;-61
2021/12/11 03:41:31;;;;;;;55.38;26.45;;;1.30;99.90;;;;;;5020535;28;20029;-61
2021/12/11 03:43:57;;;;;;;50.60;26.52;;;1.30;99.90;;;;;;5011537;28;20040;-61
2021/12/11 03:46:23;;;;;;;51.33;27.02;;;1.30;99.90;;;;;;5018237;28;20026;-61
2021/12/11 03:48:52;;;;;;;58.17;28.13;;;1.30;99.90;;;;;;5017687;28;20026;-61
2021/12/11 03:51:25;;;;;;;56.13;28.00;;;1.30;99.90;;;;;;5017341;28;20257;-61
2021/12/11 03:53:50;;;;;;;62.85;28.63;;;1.20;99.90;;;;;;5019535;28;20040;-62
2021/12/11 03:56:18;;;;;;;64.00;27.73;;;1.20;99.90;;;;;;5021417;28;20692;-62
2021/12/11 03:58:49;;;;;;;65.22;28.42;;;1.30;99.90;;;;;;5022214;28;20077;-62
2021/12/11 04:01:30;;;;;;;57.65;26.80;;;1.30;99.90;;;;;;5018303;28;20083;-61
2021/12/11 04:04:03;;;;;;;55.03;27.50;;;1.20;99.90;;;;;;5017087;28;20105;-61
2021/12/11 04:06:29;;;;;;;55.83;27.13;;;1.20;99.90;;;;;;5016577;28;20061;-61
2021/12/11 04:08:56;;;;;;;58.83;26.67;;;1.20;99.90;;;;;;5014489;28;20477;-61
2021/12/11 04:11:26;;;;;;;71.97;27.95;;;1.20;99.90;;;;;;5018637;28;20056;-61
2021/12/11 04:13:55;;;;;;;54.67;26.47;;;1.20;99.90;;;;;;5019048;28;20054;-61
2021/12/11 04:16:22;;;;;;;59.92;27.92;;;1.20;99.90;;;;;;5015878;28;20076;-61
2021/12/11 04:18:48;;;;;;;57.80;26.83;;;1.20;99.90;;;;;;5017401;28;20079;-61
2021/12/11 04:21:14;;;;;;;61.85;27.58;;;1.30;99.90;;;;;;5016889;28;20026;-61
2021/12/11 04:23:40;;;;;;;53.45;27.35;;;1.30;99.90;;;;;;5015293;28;20714;-61
2021/12/11 04:26:07;;;;;;;55.53;27.70;;;1.30;99.90;;;;;;5017530;28;20064;-61
2021/12/11 04:28:35;;;;;;;55.65;27.40;;;1.30;99.90;;;;;;5017232;28;20034;-61
2021/12/11 04:31:07;;;;;;;51.70;27.55;;;1.30;99.90;;;;;;5018436;28;20080;-61
2021/12/11 04:33:41;;;;;;;49.22;25.88;;;1.30;99.90;;;;;;5016658;28;20038;-61
2021/12/11 04:36:11;;;;;;;51.15;26.48;;;1.30;99.90;;;;;;5015854;28;20374;-61
2021/12/11 04:38:38;;;;;;;52.53;26.95;;;1.30;99.90;;;;;;5021112;28;20017;-61
2021/12/11 04:41:06;;;;;;;50.17;25.48;;;1.30;99.90;;;;;;5014425;28;20136;-61
2021/12/11 04:43:33;;;;;;;54.72;26.13;;;1.30;99.90;;;;;;5019038;28;20034;-61
2021/12/11 04:46:04;;;;;;;49.20;25.15;;;1.30;99.90;;;;;;5016275;28;20026;-61
2021/12/11 04:48:59;;;;;;;49.35;26.58;;;1.30;99.90;;;;;;5020059;28;20026;-61
2021/12/11 04:51:33;;;;;;;52.55;24.77;;;1.30;99.90;;;;;;5018265;28;20109;-61
2021/12/11 05:00:21;;;;;;;46.80;24.63;;;1.30;99.90;;;;;;5015554;28;20038;-61
2021/12/11 05:07:58;;;;;;;49.80;27.02;;;1.30;99.90;;;;;;5015215;28;20116;-61
2021/12/11 05:10:37;;;;;;;54.55;26.08;;;1.30;99.90;;;;;;5018714;28;20045;-61
2021/12/11 05:13:04;;;;;;;53.05;26.73;;;1.30;99.90;;;;;;5017498;28;20081;-61
2021/12/11 05:15:37;;;;;;;47.53;25.40;;;1.30;99.90;;;;;;5021924;28;20034;-61
2021/12/11 05:18:07;;;;;;;55.03;28.08;;;1.30;99.90;;;;;;5015070;28;20018;-60
2021/12/11 05:20:37;;;;;;;53.05;25.35;;;1.30;99.90;;;;;;5013872;28;20029;-62
2021/12/11 05:23:03;;;;;;;55.78;28.20;;;1.30;99.90;;;;;;5017896;28;20401;-61
2021/12/11 05:25:29;;;;;;;53.15;27.00;;;1.30;99.90;;;;;;5019026;28;20022;-61
2021/12/11 05:27:56;;;;;;;58.78;26.52;;;1.30;99.90;;;;;;5018281;28;20052;-62
2021/12/11 05:30:26;;;;;;;52.72;27.02;;;1.20;99.90;;;;;;5015009;28;20022;-61
2021/12/11 05:32:54;;;;;;;49.28;25.92;;;1.30;99.90;;;;;;5017767;28;20025;-60
2021/12/11 05:35:20;;;;;;;46.60;24.92;;;1.30;99.90;;;;;;5011836;28;20029;-61
2021/12/11 05:37:46;;;;;;;54.55;25.85;;;1.30;99.90;;;;;;5016488;28;20030;-61
2021/12/11 05:40:18;;;;;;;47.50;25.58;;;1.30;99.90;;;;;;5016614;28;20041;-60
2021/12/11 05:42:43;;;;;;;;;;;1.30;99.90;;;;;;5015978;28;20046;-61
2021/12/11 05:45:10;;;;;;;48.60;25.45;;;1.30;99.90;;;;;;5018644;28;19948;-61
2021/12/11 05:47:36;;;;;;;56.83;26.67;;;1.30;99.90;;;;;;5015022;28;20030;-62
2021/12/11 05:50:03;;;;;;;48.67;25.23;;;1.30;99.90;;;;;;5017539;28;20021;-61
2021/12/11 05:52:29;;;;;;;46.97;25.48;;;1.30;99.90;;;;;;5013891;28;20037;-61
2021/12/11 05:54:55;;;;;;;45.22;24.27;;;1.40;99.90;;;;;;5015202;28;20026;-61
2021/12/11 05:57:22;;;;;;;44.55;25.50;;;1.30;99.90;;;;;;5017749;28;20076;-61
2021/12/11 05:59:49;;;;;;;44.13;24.63;;;1.40;99.90;;;;;;5013822;28;20528;-61
2021/12/11 06:02:21;;;;;;;51.83;26.98;;;1.40;99.90;;;;;;5017333;28;20124;-61
2021/12/11 06:04:49;;;;;;;43.25;25.40;;;1.30;99.90;;;;;;5018784;28;20032;-61
2021/12/11 06:07:17;;;;;;;54.00;25.27;;;1.30;99.90;;;;;;5010987;28;20079;-61
2021/12/11 06:09:47;;;;;;;47.45;25.92;;;1.30;99.90;;;;;;5015074;28;20034;-61
2021/12/11 06:12:15;;;;;;;47.35;25.70;;;1.30;99.90;;;;;;5016175;28;20038;-61
2021/12/11 06:14:43;;;;;;;53.13;26.30;;;1.30;99.90;;;;;;5013922;28;20029;-61
2021/12/11 06:17:12;;;;;;;52.80;26.42;;;1.30;99.90;;;;;;5019819;28;20029;-60
2021/12/11 06:19:41;;;;;;;48.00;25.55;;;1.30;99.90;;;;;;5014152;28;20030;-61
2021/12/11 06:22:08;;;;;;;58.00;27.52;;;1.20;99.90;;;;;;5018572;28;20081;-61
2021/12/11 06:24:33;;;;;;;52.33;28.20;;;1.30;99.90;;;;;;5015290;28;20026;-61
2021/12/11 06:27:00;;;;;;;58.92;28.83;;;1.30;99.90;;;;;;5016252;28;20032;-61
2021/12/11 06:29:26;;;;;;;52.90;28.92;;;1.30;99.90;;;;;;5013679;28;20031;-61
2021/12/11 06:31:53;;;;;;;52.70;27.75;;;1.30;99.90;;;;;;5019457;28;20030;-61
2021/12/11 06:34:19;;;;;;;56.90;29.48;;;1.30;99.90;;;;;;5018518;28;20477;-60
2021/12/11 06:36:46;;;;;;;56.88;27.88;;;1.20;99.90;;;;;;5017216;28;20034;-60
2021/12/11 06:39:16;;;;;;;60.03;32.22;;;1.20;99.90;;;;;;5020197;28;20025;-61
2021/12/11 06:41:45;;;;;;;54.03;28.30;;;1.30;99.90;;;;;;5014273;28;20046;-61
2021/12/11 06:44:11;;;;;;;56.35;29.98;;;1.20;99.90;;;;;;5014549;28;20030;-61
2021/12/11 06:46:39;;;;;;;59.05;28.67;;;1.30;99.90;;;;;;5015923;28;20544;-61
2021/12/11 06:49:05;;;;;;;48.85;27.13;;;1.20;99.90;;;;;;5020033;28;20045;-61
2021/12/11 06:51:39;;;;;;;56.80;30.15;;;1.20;99.90;;;;;;5016892;28;20025;-61
2021/12/11 06:54:09;;;;;;;59.40;31.13;;;1.30;99.90;;;;;;5015323;28;20022;-60
2021/12/11 06:56:36;;;;;;;52.72;29.10;;;1.20;99.90;;;;;;5018949;28;20507;-61
2021/12/11 06:59:03;;;;;;;62.95;32.17;;;1.20;99.90;;;;;;5018923;28;20068;-61
2021/12/11 07:01:29;;;;;;;59.50;30.35;;;1.20;99.90;;;;;;5020976;28;20021;-61
2021/12/11 07:03:57;;;;;;;72.22;35.25;;;1.20;99.90;;;;;;5023390;28;20053;-61
2021/12/11 07:06:23;;;;;;;60.33;32.20;;;1.20;99.90;;;;;;5017908;28;20021;-60
2021/12/11 07:08:50;;;;;;;62.92;32.72;;;1.20;99.90;;;;;;5021212;28;20026;-60
2021/12/11 07:11:19;;;;;;;63.83;32.92;;;1.20;99.90;;;;;;5019958;28;20102;-61
2021/12/11 07:13:45;;;;;;;59.97;30.30;;;1.30;99.90;;;;;;5014513;28;20037;-61
2021/12/11 07:16:11;;;;;;;50.30;28.08;;;1.30;99.90;;;;;;5019295;28;20660;-61
2021/12/11 07:18:37;;;;;;;54.67;29.08;;;1.30;99.90;;;;;;5020114;28;20064;-60
2021/12/11 07:21:04;;;;;;;48.20;28.08;;;1.30;99.90;;;;;;5016857;28;20486;-62
2021/12/11 07:23:30;;;;;;;57.40;28.80;;;1.30;99.90;;;;;;5023340;28;20018;-62
2021/12/11 07:26:12;;;;;;;56.33;28.63;;;1.30;99.90;;;;;;5017122;28;20048;-61
2021/12/11 07:28:40;;;;;;;61.75;31.02;;;1.30;99.90;;;;;;5018511;28;20026;-61
2021/12/11 07:31:06;;;;;;;63.08;30.27;;;1.30;99.90;;;;;;5021148;28;20035;-61
2021/12/11 07:33:32;;;;;;;53.97;28.83;;;1.30;99.90;;;;;;5018554;28;20041;-61
2021/12/11 07:35:57;;;;;;;51.88;29.50;;;1.30;99.90;;;;;;5018311;28;20033;-61
2021/12/11 07:38:26;;;;;;;50.53;27.67;;;1.30;99.90;;;;;;5019738;28;20064;-61
2021/12/11 07:40:55;;;;;;;53.10;28.15;;;1.30;99.90;;;;;;5021344;28;20040;-61
2021/12/11 07:43:23;;;;;;;46.65;26.92;;;1.40;99.90;;;;;;5017882;28;20034;-61
2021/12/11 07:45:49;;;;;;;51.88;27.38;;;1.40;99.90;;;;;;5016536;28;20030;-61
2021/12/11 07:48:15;;;;;;;50.60;27.17;;;1.50;99.90;;;;;;5019541;28;20159;-61
2021/12/11 07:50:40;;;;;;;46.72;27.30;;;1.50;99.90;;;;;;5019245;28;20473;-61
2021/12/11 07:53:06;;;;;;;54.58;27.48;;;1.50;99.90;;;;;;5016028;28;20044;-61
2021/12/11 07:55:32;;;;;;;54.45;27.60;;;1.60;99.90;;;;;;5019297;28;20030;-61
2021/12/11 07:57:59;;;;;;;47.90;28.27;;;1.50;99.90;;;;;;5014851;28;20026;-61
2021/12/11 08:00:26;;;;;;;49.35;28.40;;;1.60;99.90;;;;;;5013682;28;20030;-61
2021/12/11 08:02:52;;;;;;;58.75;30.98;;;1.60;99.90;;;;;;5023535;28;20112;-61
2021/12/11 08:05:19;;;;;;;68.53;31.20;;;1.60;99.90;;;;;;5012039;28;20137;-61
2021/12/11 08:07:45;;;;;;;62.72;30.58;;;1.70;99.90;;;;;;5013158;28;20610;-61
2021/12/11 08:10:19;;;;;;;50.83;27.65;;;1.70;99.90;;;;;;5024011;28;20039;-61
2021/12/11 08:12:45;;;;;;;53.97;27.70;;;1.80;99.90;;;;;;5016893;28;20033;-61
2021/12/11 08:15:12;;;;;;;55.38;28.50;;;1.80;99.90;;;;;;5018784;28;20721;-61
2021/12/11 08:17:38;;;;;;;54.83;29.58;;;1.80;99.90;;;;;;5013450;28;20084;-62
2021/12/11 08:20:07;;;;;;;53.85;29.90;;;1.80;99.90;;;;;;5017647;28;20042;-61
2021/12/11 08:22:33;;;;;;;51.38;28.90;;;1.90;99.90;;;;;;5018650;28;20018;-61
2021/12/11 08:24:59;;;;;;;57.38;29.48;;;1.90;99.90;;;;;;5020392;28;20485;-61
2021/12/11 08:27:26;;;;;;;48.25;26.38;;;2.00;99.90;;;;;;5020205;28;20294;-61
2021/12/11 08:29:53;;;;;;;45.55;24.60;;;2.10;99.90;;;;;;5018043;28;20067;-61
2021/12/11 08:32:20;;;;;;;48.80;25.92;;;2.20;99.90;;;;;;5010406;28;20443;-61
2021/12/11 08:34:47;;;;;;;40.03;25.13;;;2.30;99.90;;;;;;5016425;28;20034;-61
2021/12/11 08:37:14;;;;;;;46.65;25.75;;;2.30;99.90;;;;;;5019296;28;20047;-62
2021/12/11 08:39:42;;;;;;;44.95;26.88;;;2.40;99.90;;;;;;5023491;28;20072;-61
2021/12/11 08:42:11;;;;;;;47.03;27.73;;;2.40;99.90;;;;;;5023743;28;20087;-61
2021/12/11 08:44:39;;;;;;;50.22;30.48;;;2.50;99.90;;;;;;5019982;28;20030;-60
2021/12/11 08:47:10;;;;;;;54.85;29.75;;;2.50;99.90;;;;;;5015158;28;20038;-61
2021/12/11 08:49:39;;;;;;;50.47;29.38;;;2.40;99.90;;;;;;5015582;28;20053;-61
2021/12/11 08:52:17;;;;;;;47.85;27.95;;;2.40;99.90;;;;;;5015807;28;20030;-61
2021/12/11 08:54:46;;;;;;;41.47;26.00;;;2.40;99.90;;;;;;5022152;28;20029;-62
2021/12/11 08:57:16;;;;;;;46.30;23.52;;;2.40;99.90;;;;;;5017347;28;20054;-61
2021/12/11 08:59:47;;;;;;;48.97;26.35;;;2.40;99.90;;;;;;5016124;28;20521;-61
2021/12/11 09:02:24;;;;;;;55.35;28.90;;;2.40;99.90;;;;;;5016843;28;20033;-61
2021/12/11 09:05:04;;;;;;;55.42;28.73;;;2.30;99.90;;;;;;5017016;28;20029;-61
2021/12/11 09:07:32;;;;;;;47.15;26.25;;;2.30;99.90;;;;;;5020171;28;20030;-61
2021/12/11 09:10:16;;;;;;;45.33;25.23;;;2.30;99.90;;;;;;5015433;28;20037;-62
2021/12/11 09:12:48;;;;;;;45.13;24.80;;;2.30;99.90;;;;;;5014187;28;20034;-61
2021/12/11 09:15:23;;;;;;;39.42;23.52;;;2.30;99.90;;;;;;5014328;28;20029;-62
2021/12/11 09:18:25;;;;;;;42.78;25.38;;;2.30;99.90;;;;;;5015985;28;20022;-61
2021/12/11 09:21:11;;;;;;;48.78;26.80;;;2.30;99.90;;;;;;5016777;28;20037;-62
2021/12/11 09:23:48;;;;;;;45.40;25.35;;;2.30;99.90;;;;;;5016148;28;20034;-62
2021/12/11 09:26:33;;;;;;;53.55;28.88;;;2.30;99.90;;;;;;5015360;28;20039;-61
2021/12/11 09:29:05;;;;;;;59.88;28.67;;;2.30;99.90;;;;;;5015393;28;20033;-61
2021/12/11 09:31:42;;;;;;;50.38;27.25;;;2.20;99.90;;;;;;5015189;28;20033;-60
2021/12/11 09:34:22;;;;;;;48.53;26.63;;;2.20;99.90;;;;;;5014566;28;20040;-60
2021/12/11 09:36:54;;;;;;;59.10;29.48;;;2.20;99.90;;;;;;5017103;28;20120;-60
2021/12/11 09:39:31;;;;;;;56.63;28.08;;;2.20;99.90;;;;;;5015101;28;20108;-64
2021/12/11 09:41:56;;;;;;;69.47;33.13;;;2.20;99.90;;;;;;5003582;28;20034;-61
2021/12/11 09:44:29;;;;;;;78.93;34.22;;;2.20;99.90;;;;;;4996893;28;20112;-61
2021/12/11 09:47:03;;;;;;;84.55;34.35;;;2.30;99.90;;;;;;5013988;28;20034;-61
2021/12/11 09:49:34;;;;;;;74.00;32.78;;;2.30;99.90;;;;;;5014786;28;20041;-61
2021/12/11 09:52:15;;;;;;;56.70;28.35;;;2.30;99.90;;;;;;5017037;28;20046;-61
2021/12/11 09:54:43;;;;;;;57.17;27.33;;;2.40;99.90;;;;;;5013930;28;20033;-61
2021/12/11 09:57:13;;;;;;;52.67;29.15;;;2.40;99.90;;;;;;5017877;28;20044;-59
2021/12/11 09:59:41;;;;;;;45.63;24.33;;;2.40;99.90;;;;;;5013551;28;20018;-61
2021/12/11 10:02:30;;;;;;;44.55;24.58;;;2.40;99.90;;;;;;5016039;28;20055;-61
2021/12/11 10:05:29;;;;;;;35.53;20.30;;;2.40;99.90;;;;;;5013523;28;20029;-58
2021/12/11 10:08:25;;;;;;;35.95;20.83;;;2.40;99.90;;;;;;5011174;28;20022;-61
2021/12/11 10:10:48;;;;;;;40.35;19.83;;;2.50;99.90;;;;;;5016807;28;20037;-61
2021/12/11 10:13:14;;;;;;;38.40;20.67;;;2.50;99.90;;;;;;5016561;28;20188;-61
2021/12/11 10:15:41;;;;;;;35.60;21.27;;;2.50;99.90;;;;;;5018438;28;20573;-62
2021/12/11 10:18:19;;;;;;;42.78;21.75;;;2.40;99.90;;;;;;5013984;28;20041;-61
2021/12/11 10:20:56;;;;;;;38.85;21.02;;;2.50;99.90;;;;;;5017238;28;20075;-61
2021/12/11 10:23:26;;;;;;;35.58;18.85;;;2.50;99.90;;;;;;4999558;28;20030;-61
2021/12/11 10:25:55;;;;;;;34.05;19.83;;;2.60;99.90;;;;;;5017020;28;20099;-61
2021/12/11 10:28:24;;;;;;;28.08;18.65;;;2.60;99.90;;;;;;5015545;28;20362;-61
2021/12/11 10:30:54;;;;;;;30.85;19.65;;;2.60;99.90;;;;;;5017259;28;20096;-59
2021/12/11 10:33:27;;;;;;;39.78;20.30;;;2.60;99.90;;;;;;5019645;28;20037;-62
2021/12/11 10:36:00;;;;;;;37.33;22.50;;;2.60;99.90;;;;;;5020801;28;20029;-58
2021/12/11 10:38:27;;;;;;;32.95;20.23;;;2.60;99.90;;;;;;5018512;28;20041;-61
2021/12/11 10:40:55;;;;;;;37.83;19.23;;;2.60;99.90;;;;;;5013491;28;20497;-61
2021/12/11 10:43:33;;;;;;;30.52;18.17;;;2.70;99.90;;;;;;5019494;28;20401;-62
2021/12/11 10:46:00;;;;;;;34.40;19.00;;;2.70;99.90;;;;;;5017418;28;20037;-61
2021/12/11 10:48:33;;;;;;;28.65;18.33;;;2.80;99.90;;;;;;5026164;28;20026;-61
2021/12/11 10:51:06;;;;;;;25.38;18.67;;;2.90;99.90;;;;;;5021376;28;20022;-62
2021/12/11 10:53:34;;;;;;;30.60;16.67;;;3.00;99.90;;;;;;5018624;28;20466;-61
2021/12/11 10:56:03;;;;;;;26.63;17.52;;;3.10;99.90;;;;;;5018964;28;20026;-62
2021/12/11 10:58:34;;;;;;;30.27;18.73;;;3.10;99.90;;;;;;5020768;28;20033;-61
2021/12/11 11:01:10;;;;;;;27.90;18.73;;;3.20;99.90;;;;;;5021448;28;20022;-62
2021/12/11 11:03:40;;;;;;;26.88;17.80;;;3.30;99.90;;;;;;5016994;28;20018;-61
2021/12/11 11:06:07;;;;;;;31.38;19.08;;;3.30;99.90;;;;;;5014758;28;20203;-61
2021/12/11 11:08:34;;;;;;;26.70;17.15;;;3.30;99.90;;;;;;5019626;28;20044;-61
2021/12/11 11:11:07;;;;;;;24.58;16.83;;;3.30;99.90;;;;;;5018669;28;20653;-61
2021/12/11 11:13:33;;;;;;;26.48;18.17;;;3.30;99.90;;;;;;5018887;28;20033;-61
2021/12/11 11:15:59;;;;;;;26.80;16.88;;;3.30;99.90;;;;;;5019959;28;20030;-60
2021/12/11 11:18:26;;;;;;;26.23;17.17;;;3.40;99.90;;;;;;5020057;28;20033;-61
2021/12/11 11:21:18;;;;;;;31.40;17.55;;;3.30;99.90;;;;;;5022828;28;20109;-60
2021/12/11 11:23:46;;;;;;;26.08;16.52;;;3.30;99.90;;;;;;5017427;28;20056;-60
2021/12/11 11:26:18;;;;;;;36.22;19.10;;;3.30;99.90;;;;;;5016437;28;20700;-60
2021/12/11 11:28:43;;;;;;;;;;;3.30;99.90;;;;;;5022715;28;20034;-60
2021/12/11 11:31:22;;;;;;;33.83;19.88;;;3.30;99.90;;;;;;5022483;28;19920;-61
2021/12/11 11:33:48;;;;;;;27.90;17.70;;;3.30;99.90;;;;;;5025856;28;20685;-61
2021/12/11 11:36:20;;;;;;;30.13;17.27;;;3.20;99.90;;;;;;5013897;28;20030;-60
2021/12/11 11:38:54;;;;;;;24.33;17.30;;;3.20;99.90;;;;;;5016523;28;20062;-61
2021/12/11 11:41:33;;;;;;;30.75;17.73;;;3.20;99.90;;;;;;5019900;28;20454;-61
2021/12/11 11:44:01;;;;;;;33.03;18.40;;;3.20;99.90;;;;;;5019685;28;20108;-61
2021/12/11 11:46:27;;;;;;;27.73;18.10;;;3.30;99.90;;;;;;5017252;28;20030;-61
2021/12/11 11:48:57;;;;;;;25.80;16.58;;;3.30;99.90;;;;;;5019793;28;20088;-61
2021/12/11 11:51:34;;;;;;;24.45;16.83;;;3.30;99.90;;;;;;5019756;28;20029;-61
2021/12/11 11:54:02;;;;;;;25.52;15.85;;;3.40;99.90;;;;;;5017497;28;20119;-61
2021/12/11 11:56:31;;;;;;;19.80;15.10;;;3.40;99.90;;;;;;5016587;28;20053;-61
2021/12/11 11:58:57;;;;;;;26.27;14.98;;;3.40;99.90;;;;;;5014520;28;20481;-60
2021/12/11 12:01:33;;;;;;;21.70;16.10;;;3.40;99.90;;;;;;5021858;28;20075;-62
2021/12/11 12:04:01;;;;;;;20.77;15.05;;;3.40;99.90;;;;;;5024809;28;20030;-61
2021/12/11 12:06:33;;;;;;;20.63;14.70;;;3.50;99.90;;;;;;5017620;28;20352;-61
2021/12/11 12:09:00;;;;;;;17.92;14.38;;;3.50;99.90;;;;;;5018348;28;20477;-60
2021/12/11 12:11:31;;;;;;;19.05;14.23;;;3.50;99.90;;;;;;5023612;28;20025;-61
2021/12/11 12:14:01;;;;;;;22.70;15.13;;;3.50;99.90;;;;;;5019630;28;20390;-61
2021/12/11 12:16:30;;;;;;;20.63;14.98;;;3.40;99.90;;;;;;5018370;28;20037;-60
2021/12/11 12:18:56;;;;;;;21.55;15.48;;;3.30;99.90;;;;;;5018439;28;20133;-60
2021/12/11 12:21:22;;;;;;;21.98;15.60;;;3.30;99.90;;;;;;5020331;28;20489;-61
2021/12/11 12:23:48;;;;;;;18.42;13.98;;;3.30;99.90;;;;;;5023217;28;20111;-61
2021/12/11 12:26:25;;;;;;;25.05;14.93;;;3.40;99.90;;;;;;5020256;28;20029;-60
2021/12/11 12:28:53;;;;;;;18.42;13.75;;;3.40;99.90;;;;;;5018418;28;20026;-62
2021/12/11 12:31:24;;;;;;;17.60;13.52;;;3.40;99.90;;;;;;5016217;28;20076;-61
2021/12/11 12:33:50;;;;;;;;;;;3.50;99.90;;;;;;5025384;28;20064;-60
2021/12/11 12:36:16;;;;;;;19.95;14.32;;;3.50;99.90;;;;;;5017835;28;19932;-60
2021/12/11 12:38:44;;;;;;;19.42;14.23;;;3.60;99.90;;;;;;5017092;28;20505;-61
2021/12/11 12:41:19;;;;;;;22.25;13.52;;;3.60;99.90;;;;;;5013112;28;20034;-61
2021/12/11 12:46:48;;;;;;;16.30;13.85;;;3.70;99.90;;;;;;5018095;28;20194;-60
2021/12/11 12:49:16;;;;;;;16.23;13.52;;;3.70;99.90;;;;;;5017143;28;20033;-61
2021/12/11 12:51:43;;;;;;;16.45;13.68;;;3.70;99.90;;;;;;5017522;28;20030;-60
2021/12/11 12:54:12;;;;;;;16.27;12.38;;;3.80;99.90;;;;;;5016951;28;20501;-60
2021/12/11 12:56:47;;;;;;;17.70;13.45;;;3.80;99.90;;;;;;5015532;28;20107;-61
2021/12/11 12:59:37;;;;;;;18.90;14.25;;;3.80;99.90;;;;;;5018657;28;20080;-61
2021/12/11 13:02:07;;;;;;;20.88;13.77;;;3.80;99.90;;;;;;5017558;28;20040;-60
2021/12/11 13:04:44;;;;;;;17.23;13.60;;;3.80;99.90;;;;;;5018724;28;20041;-61
2021/12/11 13:07:13;;;;;;;16.38;13.77;;;3.80;99.90;;;;;;5018044;28;20030;-61
2021/12/11 13:09:46;;;;;;;15.55;13.20;;;3.80;99.90;;;;;;5021176;28;20489;-60
2021/12/11 13:12:31;;;;;;;15.77;13.25;;;3.80;99.90;;;;;;5017635;28;20401;-60